createdAt,value
2023-01-17T02:56:49.145Z,2.00
2023-01-17T03:07:54.046Z,2.00
2023-01-17T03:18:53.939Z,1.70
2023-01-17T03:29:53.761Z,2.00
2023-01-17T03:40:53.706Z,2.30
2023-01-17T03:51:53.514Z,1.90
2023-01-17T04:02:53.510Z,1.80
2023-01-17T04:13:53.310Z,1.50
2023-01-17T04:24:53.199Z,2.00
2023-01-17T04:35:53.001Z,2.40
2023-01-17T04:46:52.971Z,2.00
2023-01-17T04:57:52.751Z,1.80
2023-01-17T05:08:52.633Z,2.20
2023-01-17T05:19:52.532Z,2.70
2023-01-17T05:30:52.422Z,1.80
2023-01-17T05:41:52.247Z,2.10
2023-01-17T05:52:52.322Z,1.50
2023-01-17T06:03:51.996Z,2.00
2023-01-17T06:14:51.892Z,2.60
2023-01-17T06:25:51.766Z,2.40
2023-01-17T06:36:51.852Z,2.30
2023-01-17T06:47:51.510Z,2.20
2023-01-17T06:58:51.421Z,1.10
2023-01-17T07:09:51.276Z,1.60
2023-01-17T07:20:51.165Z,2.30
2023-01-17T07:31:51.060Z,2.10
2023-01-17T07:42:50.907Z,1.90
2023-01-17T07:53:50.763Z,1.90
2023-01-17T08:04:50.699Z,3.20
2023-01-17T08:15:50.521Z,2.60
2023-01-17T08:26:50.414Z,2.60
2023-01-17T08:37:50.299Z,2.10
2023-01-17T08:48:50.165Z,2.90
2023-01-17T08:59:50.019Z,2.90
2023-01-17T09:10:49.889Z,3.60
2023-01-17T09:21:49.783Z,4.40
2023-01-17T09:32:49.669Z,3.40
2023-01-17T09:43:49.534Z,3.20
2023-01-17T09:54:49.405Z,4.30
2023-01-17T10:05:49.324Z,3.60
2023-01-17T10:16:49.251Z,4.20
2023-01-17T10:27:49.026Z,3.60
2023-01-17T10:38:48.912Z,2.50
2023-01-17T10:49:48.773Z,2.70
2023-01-17T11:00:48.770Z,2.70
2023-01-17T11:11:48.527Z,2.20
2023-01-17T11:22:48.409Z,1.70
2023-01-17T11:33:48.317Z,2.60
2023-01-17T11:44:48.179Z,2.30
2023-01-17T11:55:48.042Z,2.50
2023-01-17T12:06:57.190Z,1.90
2023-01-17T12:17:47.785Z,1.70
2023-01-17T12:28:47.691Z,1.60
2023-01-17T12:39:47.538Z,1.80
2023-01-17T12:50:47.491Z,2.30
2023-01-17T13:01:47.531Z,1.90
2023-01-17T13:12:47.164Z,2.70
2023-01-17T13:23:47.055Z,2.00
2023-01-17T13:34:46.910Z,1.80
2023-01-17T13:45:46.820Z,3.00
2023-01-17T13:56:46.660Z,2.50
2023-01-17T14:07:46.563Z,1.40
2023-01-17T14:18:46.488Z,2.20
2023-01-17T14:29:46.287Z,1.90
2023-01-17T14:40:46.168Z,2.30
2023-01-17T14:51:46.064Z,2.80
2023-01-17T15:02:46.078Z,2.20
2023-01-17T15:13:45.828Z,1.40
2023-01-17T15:24:45.727Z,2.20
2023-01-17T15:35:45.559Z,1.50
2023-01-17T15:46:45.426Z,1.60
2023-01-17T15:57:45.357Z,1.30
2023-01-17T16:08:45.229Z,1.80
2023-01-17T16:19:45.058Z,1.40
2023-01-17T16:30:45.005Z,1.50
2023-01-17T16:41:44.906Z,1.40
2023-01-17T16:52:44.678Z,1.90
2023-01-17T17:03:44.568Z,2.10
2023-01-17T17:14:44.455Z,2.60
2023-01-17T17:25:44.311Z,2.50
2023-01-17T17:36:44.242Z,2.50
2023-01-17T17:47:44.075Z,2.50
2023-01-17T17:58:46.136Z,4.40
2023-01-17T18:09:43.850Z,2.90
2023-01-17T18:20:43.706Z,2.30
2023-01-17T18:31:43.645Z,4.20
2023-01-17T18:42:43.460Z,3.00
2023-01-17T18:53:43.321Z,3.60
2023-01-17T19:04:43.194Z,2.40
2023-01-17T19:15:43.069Z,3.70
2023-01-17T19:26:43.013Z,3.20
2023-01-17T19:37:42.862Z,3.90
2023-01-17T19:48:42.707Z,2.60
2023-01-17T19:59:42.591Z,2.90
2023-01-17T20:10:42.462Z,3.70
2023-01-17T20:21:43.328Z,4.20
2023-01-17T20:32:42.219Z,4.30
2023-01-17T20:43:42.134Z,4.40
2023-01-17T20:54:41.975Z,3.00
2023-01-17T21:05:41.837Z,5.00
2023-01-17T21:16:41.761Z,3.40
2023-01-17T21:27:41.598Z,4.30
2023-01-17T21:38:41.468Z,3.30
2023-01-17T21:49:41.330Z,2.60
